sensor_id;sensor_type;location;lat;lon;timestamp;pressure;altitude;pressure_sealevel;temperature;humidity
23677;BME280;31493;49.058;12.190;2023-08-06T00:01:29;95333.66;;;14.61;100.00
23677;BME280;31493;49.058;12.190;2023-08-06T00:03:58;95343.00;;;14.63;100.00
23677;BME280;31493;49.058;12.190;2023-08-06T00:06:26;95346.13;;;14.67;100.00
23677;BME280;31493;49.058;12.190;2023-08-06T00:08:53;95358.63;;;14.81;100.00
23677;BME280;31493;49.058;12.190;2023-08-06T00:11:20;95350.63;;;14.82;100.00
23677;BME280;31493;49.058;12.190;2023-08-06T00:13:47;95359.03;;;14.94;100.00
23677;BME280;31493;49.058;12.190;2023-08-06T00:16:14;95343.00;;;14.89;100.00
23677;BME280;31493;49.058;12.190;2023-08-06T00:18:42;95353.00;;;14.94;100.00
23677;BME280;31493;49.058;12.190;2023-08-06T00:21:10;95344.72;;;15.06;100.00
23677;BME280;31493;49.058;12.190;2023-08-06T00:23:38;95335.94;;;15.07;100.00
23677;BME280;31493;49.058;12.190;2023-08-06T00:26:05;95349.31;;;15.04;100.00
23677;BME280;31493;49.058;12.190;2023-08-06T00:28:32;95343.28;;;15.04;100.00
23677;BME280;31493;49.058;12.190;2023-08-06T00:30:59;95343.88;;;14.98;100.00
23677;BME280;31493;49.058;12.190;2023-08-06T00:33:26;95352.22;;;15.01;100.00
23677;BME280;31493;49.058;12.190;2023-08-06T00:35:53;95357.28;;;15.03;100.00
23677;BME280;31493;49.058;12.190;2023-08-06T00:38:22;95350.94;;;15.05;100.00
23677;BME280;31493;49.058;12.190;2023-08-06T00:40:49;95337.53;;;15.00;100.00
23677;BME280;31493;49.058;12.190;2023-08-06T00:43:16;95344.53;;;15.00;100.00
23677;BME280;31493;49.058;12.190;2023-08-06T00:45:43;95341.56;;;14.95;100.00
23677;BME280;31493;49.058;12.190;2023-08-06T00:48:11;95352.88;;;15.03;100.00
23677;BME280;31493;49.058;12.190;2023-08-06T00:50:38;95359.91;;;15.03;100.00
23677;BME280;31493;49.058;12.190;2023-08-06T00:53:05;95357.94;;;15.05;100.00
23677;BME280;31493;49.058;12.190;2023-08-06T00:55:34;95346.09;;;15.19;100.00
23677;BME280;31493;49.058;12.190;2023-08-06T00:58:01;95368.94;;;15.17;100.00
23677;BME280;31493;49.058;12.190;2023-08-06T01:00:29;95347.25;;;15.16;100.00
23677;BME280;31493;49.058;12.190;2023-08-06T01:02:56;95349.59;;;15.27;100.00
23677;BME280;31493;49.058;12.190;2023-08-06T01:05:23;95346.78;;;15.21;100.00
23677;BME280;31493;49.058;12.190;2023-08-06T01:08:01;95355.47;;;15.29;100.00
23677;BME280;31493;49.058;12.190;2023-08-06T01:10:43;95348.78;;;15.27;100.00
23677;BME280;31493;49.058;12.190;2023-08-06T01:13:22;95338.47;;;15.25;100.00
23677;BME280;31493;49.058;12.190;2023-08-06T01:15:54;95337.78;;;15.15;100.00
23677;BME280;31493;49.058;12.190;2023-08-06T01:18:23;95342.19;;;15.15;100.00
23677;BME280;31493;49.058;12.190;2023-08-06T01:20:52;95331.84;;;15.05;100.00
23677;BME280;31493;49.058;12.190;2023-08-06T01:23:19;95333.94;;;15.01;100.00
23677;BME280;31493;49.058;12.190;2023-08-06T01:25:49;95323.91;;;15.15;100.00
23677;BME280;31493;49.058;12.190;2023-08-06T01:28:24;95323.41;;;15.19;100.00
23677;BME280;31493;49.058;12.190;2023-08-06T01:30:55;95317.03;;;15.13;100.00
23677;BME280;31493;49.058;12.190;2023-08-06T01:33:27;95327.63;;;15.12;100.00
23677;BME280;31493;49.058;12.190;2023-08-06T01:35:57;95323.59;;;15.18;100.00
23677;BME280;31493;49.058;12.190;2023-08-06T01:38:25;95321.31;;;15.15;100.00
23677;BME280;31493;49.058;12.190;2023-08-06T01:40:53;95322.06;;;15.07;100.00
23677;BME280;31493;49.058;12.190;2023-08-06T01:43:21;95320.63;;;14.78;100.00
23677;BME280;31493;49.058;12.190;2023-08-06T01:45:48;95331.78;;;14.71;100.00
23677;BME280;31493;49.058;12.190;2023-08-06T01:48:15;95334.06;;;14.66;100.00
23677;BME280;31493;49.058;12.190;2023-08-06T01:50:42;95335.38;;;14.52;100.00
23677;BME280;31493;49.058;12.190;2023-08-06T01:53:11;95340.88;;;14.41;100.00
23677;BME280;31493;49.058;12.190;2023-08-06T01:55:38;95336.38;;;14.33;100.00
23677;BME280;31493;49.058;12.190;2023-08-06T01:58:05;95332.69;;;14.36;100.00
23677;BME280;31493;49.058;12.190;2023-08-06T02:00:32;95322.09;;;14.19;100.00
23677;BME280;31493;49.058;12.190;2023-08-06T02:02:59;95325.53;;;14.20;100.00
23677;BME280;31493;49.058;12.190;2023-08-06T02:05:26;95314.94;;;14.21;100.00
23677;BME280;31493;49.058;12.190;2023-08-06T02:07:53;95312.41;;;14.29;100.00
23677;BME280;31493;49.058;12.190;2023-08-06T02:10:21;95313.91;;;14.14;100.00
23677;BME280;31493;49.058;12.190;2023-08-06T02:12:48;95302.06;;;14.02;100.00
23677;BME280;31493;49.058;12.190;2023-08-06T02:15:15;95309.91;;;14.02;100.00
23677;BME280;31493;49.058;12.190;2023-08-06T02:17:42;95300.38;;;13.93;100.00
23677;BME280;31493;49.058;12.190;2023-08-06T02:20:10;95306.69;;;13.90;100.00
23677;BME280;31493;49.058;12.190;2023-08-06T02:22:37;95300.59;;;13.82;100.00
23677;BME280;31493;49.058;12.190;2023-08-06T02:25:04;95296.03;;;13.84;100.00
23677;BME280;31493;49.058;12.190;2023-08-06T02:27:33;95296.59;;;13.87;100.00
23677;BME280;31493;49.058;12.190;2023-08-06T02:30:00;95296.19;;;13.82;100.00
23677;BME280;31493;49.058;12.190;2023-08-06T02:32:28;95297.41;;;13.88;100.00
23677;BME280;31493;49.058;12.190;2023-08-06T02:34:57;95298.25;;;14.14;100.00
23677;BME280;31493;49.058;12.190;2023-08-06T02:37:24;95293.97;;;13.87;100.00
23677;BME280;31493;49.058;12.190;2023-08-06T02:39:51;95284.88;;;13.91;100.00
23677;BME280;31493;49.058;12.190;2023-08-06T02:42:18;95271.50;;;13.86;100.00
23677;BME280;31493;49.058;12.190;2023-08-06T02:44:46;95281.59;;;13.89;100.00
23677;BME280;31493;49.058;12.190;2023-08-06T02:47:13;95273.41;;;13.84;100.00
23677;BME280;31493;49.058;12.190;2023-08-06T02:49:40;95282.84;;;13.85;100.00
23677;BME280;31493;49.058;12.190;2023-08-06T02:52:07;95282.72;;;13.87;100.00
23677;BME280;31493;49.058;12.190;2023-08-06T02:54:34;95283.22;;;13.72;100.00
23677;BME280;31493;49.058;12.190;2023-08-06T02:57:01;95290.63;;;13.77;100.00
23677;BME280;31493;49.058;12.190;2023-08-06T02:59:28;95283.47;;;13.79;100.00
23677;BME280;31493;49.058;12.190;2023-08-06T03:01:56;95275.50;;;13.81;100.00
23677;BME280;31493;49.058;12.190;2023-08-06T03:04:23;95266.34;;;13.76;100.00
23677;BME280;31493;49.058;12.190;2023-08-06T03:06:50;95274.75;;;13.70;100.00
23677;BME280;31493;49.058;12.190;2023-08-06T03:09:18;95272.59;;;13.84;100.00
23677;BME280;31493;49.058;12.190;2023-08-06T03:11:45;95278.50;;;13.86;100.00
23677;BME280;31493;49.058;12.190;2023-08-06T03:14:12;95288.38;;;13.82;100.00
23677;BME280;31493;49.058;12.190;2023-08-06T03:16:39;95280.78;;;13.71;100.00
23677;BME280;31493;49.058;12.190;2023-08-06T03:19:07;95280.63;;;13.72;100.00
23677;BME280;31493;49.058;12.190;2023-08-06T03:21:34;95274.59;;;13.72;100.00
23677;BME280;31493;49.058;12.190;2023-08-06T03:24:01;95280.63;;;13.72;100.00
23677;BME280;31493;49.058;12.190;2023-08-06T03:26:28;95277.81;;;13.66;100.00
23677;BME280;31493;49.058;12.190;2023-08-06T03:28:55;95268.72;;;13.70;100.00
23677;BME280;31493;49.058;12.190;2023-08-06T03:31:22;95268.72;;;13.70;100.00
23677;BME280;31493;49.058;12.190;2023-08-06T03:33:49;95271.41;;;13.60;100.00
23677;BME280;31493;49.058;12.190;2023-08-06T03:36:17;95264.56;;;13.59;100.00
23677;BME280;31493;49.058;12.190;2023-08-06T03:38:44;95264.47;;;13.51;100.00
23677;BME280;31493;49.058;12.190;2023-08-06T03:41:11;95271.13;;;13.63;100.00
23677;BME280;31493;49.058;12.190;2023-08-06T03:43:38;95272.81;;;13.72;100.00
23677;BME280;31493;49.058;12.190;2023-08-06T03:46:05;95274.09;;;13.68;100.00
23677;BME280;31493;49.058;12.190;2023-08-06T03:48:32;95280.28;;;13.67;100.00
23677;BME280;31493;49.058;12.190;2023-08-06T03:50:59;95273.50;;;13.57;100.00
23677;BME280;31493;49.058;12.190;2023-08-06T03:53:29;95276.59;;;13.60;100.00
23677;BME280;31493;49.058;12.190;2023-08-06T03:55:56;95276.09;;;13.57;100.00
23677;BME280;31493;49.058;12.190;2023-08-06T03:58:25;95278.13;;;13.63;100.00
23677;BME280;31493;49.058;12.190;2023-08-06T04:00:59;95273.63;;;13.73;100.00
23677;BME280;31493;49.058;12.190;2023-08-06T04:03:26;95274.38;;;13.65;100.00
23677;BME280;31493;49.058;12.190;2023-08-06T04:05:53;95272.09;;;13.62;100.00
23677;BME280;31493;49.058;12.190;2023-08-06T04:08:21;95262.38;;;13.72;100.00
23677;BME280;31493;49.058;12.190;2023-08-06T04:10:50;95273.34;;;13.76;100.00
23677;BME280;31493;49.058;12.190;2023-08-06T04:13:18;95283.59;;;13.60;100.00
23677;BME280;31493;49.058;12.190;2023-08-06T04:15:45;95287.34;;;13.57;100.00
23677;BME280;31493;49.058;12.190;2023-08-06T04:18:13;95280.88;;;13.61;100.00
23677;BME280;31493;49.058;12.190;2023-08-06T04:20:43;95279.00;;;13.71;100.00
23677;BME280;31493;49.058;12.190;2023-08-06T04:23:11;95296.34;;;13.63;100.00
23677;BME280;31493;49.058;12.190;2023-08-06T04:25:38;95290.94;;;13.74;100.00
23677;BME280;31493;49.058;12.190;2023-08-06T04:28:06;95299.34;;;13.86;100.00
23677;BME280;31493;49.058;12.190;2023-08-06T04:30:34;95289.13;;;13.92;100.00
23677;BME280;31493;49.058;12.190;2023-08-06T04:33:01;95285.41;;;13.95;100.00
23677;BME280;31493;49.058;12.190;2023-08-06T04:35:28;95280.63;;;13.90;100.00
23677;BME280;31493;49.058;12.190;2023-08-06T04:37:55;95283.47;;;13.97;100.00
23677;BME280;31493;49.058;12.190;2023-08-06T04:40:22;95262.75;;;14.13;100.00
23677;BME280;31493;49.058;12.190;2023-08-06T04:42:49;95264.59;;;14.21;100.00
23677;BME280;31493;49.058;12.190;2023-08-06T04:45:17;95260.59;;;14.09;100.00
23677;BME280;31493;49.058;12.190;2023-08-06T04:47:44;95258.94;;;14.08;100.00
23677;BME280;31493;49.058;12.190;2023-08-06T04:50:11;95257.16;;;14.08;100.00
23677;BME280;31493;49.058;12.190;2023-08-06T04:52:38;95275.56;;;13.89;100.00
23677;BME280;31493;49.058;12.190;2023-08-06T04:55:06;95268.06;;;13.86;100.00
23677;BME280;31493;49.058;12.190;2023-08-06T04:57:33;95258.44;;;14.04;100.00
23677;BME280;31493;49.058;12.190;2023-08-06T05:00:00;95256.72;;;14.13;100.00
23677;BME280;31493;49.058;12.190;2023-08-06T05:02:29;95251.25;;;14.24;100.00
23677;BME280;31493;49.058;12.190;2023-08-06T05:04:57;95244.25;;;14.24;100.00
23677;BME280;31493;49.058;12.190;2023-08-06T05:07:24;95253.78;;;14.16;100.00
23677;BME280;31493;49.058;12.190;2023-08-06T05:09:51;95238.91;;;14.08;100.00
23677;BME280;31493;49.058;12.190;2023-08-06T05:12:19;95238.09;;;14.08;100.00
23677;BME280;31493;49.058;12.190;2023-08-06T05:14:46;95238.38;;;14.22;100.00
23677;BME280;31493;49.058;12.190;2023-08-06T05:17:13;95243.22;;;14.17;100.00
23677;BME280;31493;49.058;12.190;2023-08-06T05:19:42;95240.75;;;14.16;100.00
23677;BME280;31493;49.058;12.190;2023-08-06T05:22:09;95245.25;;;14.05;100.00
23677;BME280;31493;49.058;12.190;2023-08-06T05:24:36;95247.47;;;14.18;100.00
23677;BME280;31493;49.058;12.190;2023-08-06T05:27:03;95251.56;;;14.21;100.00
23677;BME280;31493;49.058;12.190;2023-08-06T05:29:30;95254.41;;;14.10;100.00
23677;BME280;31493;49.058;12.190;2023-08-06T05:31:57;95249.56;;;13.97;100.00
23677;BME280;31493;49.058;12.190;2023-08-06T05:34:24;95243.19;;;13.91;100.00
23677;BME280;31493;49.058;12.190;2023-08-06T05:36:53;95242.56;;;13.97;100.00
23677;BME280;31493;49.058;12.190;2023-08-06T05:39:20;95249.56;;;13.97;100.00
23677;BME280;31493;49.058;12.190;2023-08-06T05:41:47;95250.69;;;14.12;100.00
23677;BME280;31493;49.058;12.190;2023-08-06T05:44:14;95248.53;;;14.08;100.00
23677;BME280;31493;49.058;12.190;2023-08-06T05:46:41;95265.09;;;13.98;100.00
23677;BME280;31493;49.058;12.190;2023-08-06T05:49:08;95250.38;;;13.97;100.00
23677;BME280;31493;49.058;12.190;2023-08-06T05:51:35;95246.53;;;14.01;100.00
23677;BME280;31493;49.058;12.190;2023-08-06T05:54:04;95247.25;;;14.12;100.00
23677;BME280;31493;49.058;12.190;2023-08-06T05:56:31;95256.19;;;14.09;100.00
23677;BME280;31493;49.058;12.190;2023-08-06T05:58:58;95256.56;;;14.14;100.00
23677;BME280;31493;49.058;12.190;2023-08-06T06:01:25;95250.56;;;14.22;100.00
23677;BME280;31493;49.058;12.190;2023-08-06T06:03:52;95245.06;;;14.25;100.00
23677;BME280;31493;49.058;12.190;2023-08-06T06:06:19;95243.53;;;14.14;100.00
23677;BME280;31493;49.058;12.190;2023-08-06T06:08:46;95238.94;;;14.34;100.00
23677;BME280;31493;49.058;12.190;2023-08-06T06:11:14;95244.22;;;14.16;100.00
23677;BME280;31493;49.058;12.190;2023-08-06T06:13:41;95237.34;;;14.15;100.00
23677;BME280;31493;49.058;12.190;2023-08-06T06:16:08;95238.69;;;14.19;100.00
23677;BME280;31493;49.058;12.190;2023-08-06T06:18:35;95245.16;;;14.15;100.00
23677;BME280;31493;49.058;12.190;2023-08-06T06:21:02;95230.00;;;14.11;100.00
23677;BME280;31493;49.058;12.190;2023-08-06T06:23:30;95241.84;;;14.31;100.00
23677;BME280;31493;49.058;12.190;2023-08-06T06:25:58;95229.09;;;14.28;100.00
23677;BME280;31493;49.058;12.190;2023-08-06T06:28:26;95234.16;;;14.47;100.00
23677;BME280;31493;49.058;12.190;2023-08-06T06:30:53;95237.94;;;14.53;100.00
23677;BME280;31493;49.058;12.190;2023-08-06T06:33:20;95228.16;;;14.55;100.00
23677;BME280;31493;49.058;12.190;2023-08-06T06:35:47;95234.00;;;14.57;100.00
23677;BME280;31493;49.058;12.190;2023-08-06T06:38:14;95230.72;;;14.73;100.00
23677;BME280;31493;49.058;12.190;2023-08-06T06:40:41;95229.13;;;14.80;100.00
23677;BME280;31493;49.058;12.190;2023-08-06T06:43:08;95231.50;;;14.65;100.00
23677;BME280;31493;49.058;12.190;2023-08-06T06:45:36;95229.59;;;14.83;100.00
23677;BME280;31493;49.058;12.190;2023-08-06T06:48:06;95221.28;;;14.80;100.00
23677;BME280;31493;49.058;12.190;2023-08-06T06:50:33;95229.47;;;14.85;100.00
23677;BME280;31493;49.058;12.190;2023-08-06T06:53:00;95223.75;;;14.90;100.00
23677;BME280;31493;49.058;12.190;2023-08-06T06:55:26;95235.41;;;15.03;100.00
23677;BME280;31493;49.058;12.190;2023-08-06T06:57:54;95229.13;;;15.22;100.00
23677;BME280;31493;49.058;12.190;2023-08-06T07:00:20;95230.03;;;15.05;100.00
23677;BME280;31493;49.058;12.190;2023-08-06T07:02:49;95222.81;;;14.99;100.00
23677;BME280;31493;49.058;12.190;2023-08-06T07:05:17;95229.38;;;15.03;100.00
23677;BME280;31493;49.058;12.190;2023-08-06T07:07:44;95228.97;;;14.90;100.00
23677;BME280;31493;49.058;12.190;2023-08-06T07:10:11;95222.81;;;14.91;100.00
23677;BME280;31493;49.058;12.190;2023-08-06T07:12:38;95220.59;;;15.12;100.00
23677;BME280;31493;49.058;12.190;2023-08-06T07:15:06;95226.72;;;14.95;100.00
23677;BME280;31493;49.058;12.190;2023-08-06T07:17:33;95210.31;;;15.19;100.00
23677;BME280;31493;49.058;12.190;2023-08-06T07:20:02;95222.31;;;15.62;100.00
23677;BME280;31493;49.058;12.190;2023-08-06T07:22:30;95216.28;;;15.53;100.00
23677;BME280;31493;49.058;12.190;2023-08-06T07:24:57;95207.81;;;15.59;100.00
23677;BME280;31493;49.058;12.190;2023-08-06T07:27:25;95218.06;;;15.69;100.00
23677;BME280;31493;49.058;12.190;2023-08-06T07:29:52;95218.06;;;15.53;100.00
23677;BME280;31493;49.058;12.190;2023-08-06T07:32:19;95208.91;;;15.57;99.53
23677;BME280;31493;49.058;12.190;2023-08-06T07:34:46;95219.19;;;15.34;99.55
23677;BME280;31493;49.058;12.190;2023-08-06T07:37:14;95212.03;;;15.60;100.00
23677;BME280;31493;49.058;12.190;2023-08-06T07:39:41;95212.34;;;15.33;98.81
23677;BME280;31493;49.058;12.190;2023-08-06T07:42:10;95201.19;;;15.23;100.00
23677;BME280;31493;49.058;12.190;2023-08-06T07:44:37;95211.81;;;15.29;100.00
23677;BME280;31493;49.058;12.190;2023-08-06T07:47:05;95213.00;;;15.43;100.00
23677;BME280;31493;49.058;12.190;2023-08-06T07:49:32;95213.19;;;15.58;99.89
23677;BME280;31493;49.058;12.190;2023-08-06T07:51:59;95202.44;;;16.02;99.20
23677;BME280;31493;49.058;12.190;2023-08-06T07:54:28;95202.91;;;16.05;95.73
23677;BME280;31493;49.058;12.190;2023-08-06T07:56:55;95195.75;;;15.75;95.54
23677;BME280;31493;49.058;12.190;2023-08-06T07:59:22;95198.50;;;15.81;97.39
23677;BME280;31493;49.058;12.190;2023-08-06T08:01:49;95195.41;;;16.02;96.09
23677;BME280;31493;49.058;12.190;2023-08-06T08:04:16;95196.38;;;16.17;95.86
23677;BME280;31493;49.058;12.190;2023-08-06T08:06:43;95190.81;;;16.29;94.75
23677;BME280;31493;49.058;12.190;2023-08-06T08:09:10;95178.19;;;16.40;92.24
23677;BME280;31493;49.058;12.190;2023-08-06T08:11:40;95176.25;;;16.18;91.24
23677;BME280;31493;49.058;12.190;2023-08-06T08:14:08;95178.41;;;16.14;91.01
23677;BME280;31493;49.058;12.190;2023-08-06T08:16:35;95174.22;;;16.53;92.51
23677;BME280;31493;49.058;12.190;2023-08-06T08:19:03;95179.34;;;16.38;90.21
23677;BME280;31493;49.058;12.190;2023-08-06T08:21:30;95171.78;;;16.51;89.96
23677;BME280;31493;49.058;12.190;2023-08-06T08:23:59;95169.50;;;16.48;89.79
23677;BME280;31493;49.058;12.190;2023-08-06T08:26:27;95169.13;;;16.59;88.86
23677;BME280;31493;49.058;12.190;2023-08-06T08:28:56;95183.91;;;16.91;89.50
23677;BME280;31493;49.058;12.190;2023-08-06T08:31:23;95172.44;;;16.53;87.20
23677;BME280;31493;49.058;12.190;2023-08-06T08:33:50;95176.38;;;16.41;86.44
23677;BME280;31493;49.058;12.190;2023-08-06T08:36:17;95164.41;;;16.55;85.15
23677;BME280;31493;49.058;12.190;2023-08-06T08:38:44;95168.34;;;16.51;84.85
23677;BME280;31493;49.058;12.190;2023-08-06T08:41:11;95174.63;;;16.25;85.12
23677;BME280;31493;49.058;12.190;2023-08-06T08:43:40;95179.97;;;16.48;86.49
23677;BME280;31493;49.058;12.190;2023-08-06T08:46:09;95177.59;;;16.78;83.77
23677;BME280;31493;49.058;12.190;2023-08-06T08:48:38;95168.69;;;16.95;82.85
23677;BME280;31493;49.058;12.190;2023-08-06T08:51:06;95160.34;;;16.99;83.15
23677;BME280;31493;49.058;12.190;2023-08-06T08:53:33;95168.88;;;17.24;87.47
23677;BME280;31493;49.058;12.190;2023-08-06T08:56:04;95158.56;;;17.23;82.19
23677;BME280;31493;49.058;12.190;2023-08-06T08:58:32;95155.53;;;17.34;79.40
23677;BME280;31493;49.058;12.190;2023-08-06T09:00:59;95161.34;;;17.21;81.71
23677;BME280;31493;49.058;12.190;2023-08-06T09:03:28;95150.38;;;16.95;79.72
23677;BME280;31493;49.058;12.190;2023-08-06T09:05:57;95155.22;;;16.75;78.95
23677;BME280;31493;49.058;12.190;2023-08-06T09:08:27;95170.06;;;16.19;86.04
23677;BME280;31493;49.058;12.190;2023-08-06T09:10:57;95187.34;;;15.38;94.93
23677;BME280;31493;49.058;12.190;2023-08-06T09:13:25;95191.56;;;15.15;99.64
23677;BME280;31493;49.058;12.190;2023-08-06T09:15:51;95181.41;;;15.04;100.00
23677;BME280;31493;49.058;12.190;2023-08-06T09:18:25;95176.72;;;15.24;100.00
23677;BME280;31493;49.058;12.190;2023-08-06T09:20:54;95167.25;;;15.31;100.00
23677;BME280;31493;49.058;12.190;2023-08-06T09:23:27;95160.75;;;15.43;100.00
23677;BME280;31493;49.058;12.190;2023-08-06T09:25:55;95174.44;;;15.37;100.00
23677;BME280;31493;49.058;12.190;2023-08-06T09:28:22;95168.41;;;15.36;100.00
23677;BME280;31493;49.058;12.190;2023-08-06T09:30:50;95159.78;;;15.60;100.00
23677;BME280;31493;49.058;12.190;2023-08-06T09:33:22;95141.84;;;15.82;100.00
23677;BME280;31493;49.058;12.190;2023-08-06T09:35:49;95152.66;;;16.42;100.00
23677;BME280;31493;49.058;12.190;2023-08-06T09:38:18;95143.94;;;16.75;100.00
23677;BME280;31493;49.058;12.190;2023-08-06T09:40:44;95140.50;;;17.05;100.00
23677;BME280;31493;49.058;12.190;2023-08-06T09:43:12;95133.66;;;17.27;100.00
23677;BME280;31493;49.058;12.190;2023-08-06T09:45:39;95124.03;;;17.19;100.00
23677;BME280;31493;49.058;12.190;2023-08-06T09:48:07;95125.78;;;16.65;98.33
23677;BME280;31493;49.058;12.190;2023-08-06T09:50:36;95132.72;;;16.41;97.73
23677;BME280;31493;49.058;12.190;2023-08-06T09:53:06;95132.28;;;16.30;100.00
23677;BME280;31493;49.058;12.190;2023-08-06T09:55:35;95135.97;;;16.52;100.00
23677;BME280;31493;49.058;12.190;2023-08-06T09:58:02;95143.69;;;16.45;97.88
23677;BME280;31493;49.058;12.190;2023-08-06T10:00:30;95137.72;;;15.63;97.23
23677;BME280;31493;49.058;12.190;2023-08-06T10:03:00;95148.44;;;14.61;100.00
23677;BME280;31493;49.058;12.190;2023-08-06T10:05:27;95158.56;;;14.29;100.00
23677;BME280;31493;49.058;12.190;2023-08-06T10:07:55;95157.59;;;14.30;100.00
23677;BME280;31493;49.058;12.190;2023-08-06T10:10:24;95150.88;;;14.28;100.00
23677;BME280;31493;49.058;12.190;2023-08-06T10:12:55;95157.13;;;14.35;100.00
23677;BME280;31493;49.058;12.190;2023-08-06T10:15:26;95165.19;;;14.50;100.00
23677;BME280;31493;49.058;12.190;2023-08-06T10:17:56;95163.09;;;14.53;100.00
23677;BME280;31493;49.058;12.190;2023-08-06T10:20:24;95166.03;;;14.93;100.00
23677;BME280;31493;49.058;12.190;2023-08-06T10:23:01;95158.78;;;15.29;100.00
23677;BME280;31493;49.058;12.190;2023-08-06T10:25:30;95164.88;;;15.86;100.00
23677;BME280;31493;49.058;12.190;2023-08-06T10:28:00;95153.44;;;15.96;99.35
23677;BME280;31493;49.058;12.190;2023-08-06T10:30:29;95157.28;;;16.24;100.00
23677;BME280;31493;49.058;12.190;2023-08-06T10:32:58;95153.44;;;16.59;100.00
23677;BME280;31493;49.058;12.190;2023-08-06T10:35:35;95153.78;;;16.48;96.84
23677;BME280;31493;49.058;12.190;2023-08-06T10:38:07;95154.09;;;15.89;99.86
23677;BME280;31493;49.058;12.190;2023-08-06T10:40:35;95145.88;;;15.27;99.09
23677;BME280;31493;49.058;12.190;2023-08-06T10:43:05;95159.81;;;14.85;99.05
23677;BME280;31493;49.058;12.190;2023-08-06T10:45:37;95166.13;;;14.75;100.00
23677;BME280;31493;49.058;12.190;2023-08-06T10:48:05;95162.38;;;14.43;100.00
23677;BME280;31493;49.058;12.190;2023-08-06T10:50:32;95171.13;;;14.34;100.00
23677;BME280;31493;49.058;12.190;2023-08-06T10:53:04;95158.81;;;14.52;100.00
23677;BME280;31493;49.058;12.190;2023-08-06T10:55:32;95146.22;;;14.66;100.00
23677;BME280;31493;49.058;12.190;2023-08-06T10:57:59;95146.41;;;14.72;100.00
23677;BME280;31493;49.058;12.190;2023-08-06T11:00:27;95154.84;;;15.08;100.00
23677;BME280;31493;49.058;12.190;2023-08-06T11:02:55;95146.69;;;15.44;100.00
23677;BME280;31493;49.058;12.190;2023-08-06T11:05:22;95159.94;;;15.43;100.00
23677;BME280;31493;49.058;12.190;2023-08-06T11:07:49;95158.09;;;15.02;100.00
23677;BME280;31493;49.058;12.190;2023-08-06T11:10:18;95159.00;;;14.85;100.00
23677;BME280;31493;49.058;12.190;2023-08-06T11:12:45;95155.06;;;14.81;100.00
23677;BME280;31493;49.058;12.190;2023-08-06T11:15:12;95163.66;;;14.65;100.00
23677;BME280;31493;49.058;12.190;2023-08-06T11:17:41;95165.34;;;14.82;100.00
23677;BME280;31493;49.058;12.190;2023-08-06T11:20:09;95152.81;;;14.86;100.00
23677;BME280;31493;49.058;12.190;2023-08-06T11:22:37;95152.63;;;14.88;100.00
23677;BME280;31493;49.058;12.190;2023-08-06T11:25:06;95158.91;;;15.11;100.00
23677;BME280;31493;49.058;12.190;2023-08-06T11:27:33;95165.13;;;15.18;100.00
23677;BME280;31493;49.058;12.190;2023-08-06T11:30:00;95148.34;;;15.45;100.00
23677;BME280;31493;49.058;12.190;2023-08-06T11:32:27;95137.72;;;15.55;100.00
23677;BME280;31493;49.058;12.190;2023-08-06T11:34:56;95147.69;;;16.00;100.00
23677;BME280;31493;49.058;12.190;2023-08-06T11:37:23;95133.59;;;16.17;100.00
23677;BME280;31493;49.058;12.190;2023-08-06T11:39:51;95141.38;;;16.50;100.00
23677;BME280;31493;49.058;12.190;2023-08-06T11:42:19;95133.59;;;16.81;100.00
23677;BME280;31493;49.058;12.190;2023-08-06T11:44:46;95121.47;;;17.34;100.00
23677;BME280;31493;49.058;12.190;2023-08-06T11:47:15;95119.06;;;17.02;100.00
23677;BME280;31493;49.058;12.190;2023-08-06T11:49:44;95126.56;;;16.73;100.00
23677;BME280;31493;49.058;12.190;2023-08-06T11:52:16;95138.75;;;16.50;100.00
23677;BME280;31493;49.058;12.190;2023-08-06T11:54:45;95138.06;;;16.09;100.00
23677;BME280;31493;49.058;12.190;2023-08-06T11:57:12;95125.34;;;15.89;100.00
23677;BME280;31493;49.058;12.190;2023-08-06T11:59:39;95125.69;;;15.78;100.00
23677;BME280;31493;49.058;12.190;2023-08-06T12:02:08;95124.69;;;15.96;100.00
23677;BME280;31493;49.058;12.190;2023-08-06T12:05:02;95132.63;;;16.18;100.00
23677;BME280;31493;49.058;12.190;2023-08-06T12:07:32;95116.47;;;16.15;100.00
23677;BME280;31493;49.058;12.190;2023-08-06T12:09:59;95113.22;;;15.97;100.00
23677;BME280;31493;49.058;12.190;2023-08-06T12:12:27;95119.91;;;15.99;100.00
23677;BME280;31493;49.058;12.190;2023-08-06T12:14:54;95113.53;;;16.10;100.00
23677;BME280;31493;49.058;12.190;2023-08-06T12:17:21;95114.53;;;16.56;100.00
23677;BME280;31493;49.058;12.190;2023-08-06T12:19:48;95130.97;;;17.12;100.00
23677;BME280;31493;49.058;12.190;2023-08-06T12:22:16;95117.31;;;17.48;100.00
23677;BME280;31493;49.058;12.190;2023-08-06T12:24:46;95119.81;;;18.31;100.00
23677;BME280;31493;49.058;12.190;2023-08-06T12:27:13;95097.47;;;17.91;92.62
23677;BME280;31493;49.058;12.190;2023-08-06T12:29:41;95114.44;;;17.12;92.81
23677;BME280;31493;49.058;12.190;2023-08-06T12:32:09;95113.16;;;16.77;91.92
23677;BME280;31493;49.058;12.190;2023-08-06T12:34:37;95111.13;;;16.48;92.75
23677;BME280;31493;49.058;12.190;2023-08-06T12:37:05;95111.38;;;16.61;92.17
23677;BME280;31493;49.058;12.190;2023-08-06T12:39:33;95103.53;;;16.61;92.13
23677;BME280;31493;49.058;12.190;2023-08-06T12:42:02;95107.63;;;16.63;91.96
23677;BME280;31493;49.058;12.190;2023-08-06T12:44:30;95109.97;;;16.50;88.90
23677;BME280;31493;49.058;12.190;2023-08-06T12:46:57;95098.38;;;16.44;88.96